Time;durP1;ratioP1;P1;durP2;ratioP2;P2;SDS_P1;SDS_P2;PMS_P1;PMS_P2;Temp;Humidity;BMP_temperature;BMP_pressure;BME280_temperature;BME280_humidity;BME280_pressure;Samples;Min_cycle;Max_cycle;Signal;HPM_P1;HPM_P2
2022/11/25 00:02:26;;;;;;;10.55;2.42;;;7.90;82.70;;;;;;5050961;28;20053;-71
2022/11/25 00:04:53;;;;;;;11.20;2.10;;;7.80;82.70;;;;;;5034452;28;20152;-71
2022/11/25 00:07:21;;;;;;;7.05;1.90;;;7.90;82.70;;;;;;5052688;28;20733;-71
2022/11/25 00:09:48;;;;;;;9.48;2.20;;;7.80;82.80;;;;;;5050697;28;20120;-71
2022/11/25 00:12:15;;;;;;;10.23;2.30;;;7.80;82.80;;;;;;5052377;28;20054;-71
2022/11/25 00:14:42;;;;;;;9.23;2.50;;;7.90;82.90;;;;;;5052416;28;20511;-71
2022/11/25 00:17:09;;;;;;;10.40;2.33;;;7.90;82.90;;;;;;5034689;28;20529;-71
2022/11/25 00:19:36;;;;;;;9.57;1.70;;;7.90;82.90;;;;;;5033757;28;20256;-71
2022/11/25 00:22:04;;;;;;;10.13;2.20;;;7.90;83.00;;;;;;5047980;28;20050;-71
2022/11/25 00:24:32;;;;;;;10.63;2.40;;;7.80;83.00;;;;;;5014276;28;20046;-71
2022/11/25 00:27:03;;;;;;;12.13;2.80;;;7.90;83.00;;;;;;5046290;28;20833;-71
2022/11/25 00:29:30;;;;;;;11.43;3.13;;;7.90;83.00;;;;;;5047209;28;20050;-71
2022/11/25 00:31:58;;;;;;;10.27;1.95;;;7.90;83.10;;;;;;5039602;28;20758;-71
2022/11/25 00:34:25;;;;;;;9.25;2.40;;;8.00;83.20;;;;;;5034403;28;20054;-71
2022/11/25 00:36:53;;;;;;;13.25;2.30;;;8.00;83.10;;;;;;5050837;28;20058;-71
2022/11/25 00:39:23;;;;;;;13.75;2.85;;;8.00;83.10;;;;;;5050510;28;20456;-71
2022/11/25 00:44:36;;;;;;;8.80;2.60;;;8.00;83.20;;;;;;5050376;28;20249;-71
2022/11/25 00:47:03;;;;;;;10.32;2.20;;;8.00;83.20;;;;;;5030599;28;20046;-71
2022/11/25 00:49:30;;;;;;;8.32;2.10;;;8.00;83.00;;;;;;5031517;28;20058;-71
2022/11/25 00:51:57;;;;;;;10.10;2.30;;;8.00;83.20;;;;;;5021476;28;20141;-71
2022/11/25 00:54:25;;;;;;;11.13;2.43;;;8.00;83.30;;;;;;5033738;28;20134;-71
2022/11/25 00:56:53;;;;;;;12.65;3.00;;;8.00;83.20;;;;;;5034022;28;20249;-71
2022/11/25 00:59:20;;;;;;;12.50;2.30;;;8.00;83.20;;;;;;5033059;28;20100;-71
2022/11/25 01:01:48;;;;;;;12.32;2.80;;;8.10;83.30;;;;;;5050482;28;20075;-71
2022/11/25 01:04:15;;;;;;;11.90;2.40;;;8.00;83.20;;;;;;5050473;28;20499;-71
2022/11/25 01:06:42;;;;;;;9.40;2.27;;;8.10;83.20;;;;;;5047234;28;20054;-71
2022/11/25 01:09:12;;;;;;;11.48;2.42;;;8.10;83.20;;;;;;5033304;28;20348;-71
2022/11/25 01:11:40;;;;;;;14.82;2.88;;;8.10;83.30;;;;;;5030429;28;20050;-71
2022/11/25 01:14:09;;;;;;;10.68;2.50;;;8.10;83.20;;;;;;5031720;28;20050;-71
2022/11/25 01:16:37;;;;;;;10.38;2.75;;;8.10;83.20;;;;;;5035022;28;20050;-71
2022/11/25 01:19:08;;;;;;;7.07;1.80;;;8.10;83.30;;;;;;5017831;28;20184;-71
2022/11/25 01:21:35;;;;;;;9.45;2.63;;;8.10;83.30;;;;;;5033070;28;20288;-71
2022/11/25 01:24:04;;;;;;;13.23;2.55;;;8.10;83.20;;;;;;5033087;28;20053;-71
2022/11/25 01:26:36;;;;;;;12.27;2.55;;;8.10;83.20;;;;;;5050845;28;20460;-71
2022/11/25 01:29:05;;;;;;;11.38;3.25;;;8.10;83.30;;;;;;5032161;28;20116;-72
2022/11/25 01:31:36;;;;;;;10.40;2.47;;;8.10;83.30;;;;;;5016379;28;20056;-71
2022/11/25 01:34:07;;;;;;;9.50;2.55;;;8.10;83.30;;;;;;5016297;28;20268;-71
2022/11/25 01:36:35;;;;;;;12.38;2.53;;;8.20;83.30;;;;;;5040535;28;20057;-71
2022/11/25 01:39:03;;;;;;;12.88;2.50;;;8.20;83.20;;;;;;5050527;28;20081;-72
2022/11/25 01:41:33;;;;;;;8.40;2.40;;;8.20;83.30;;;;;;5049106;28;20045;-72
2022/11/25 01:44:09;;;;;;;10.80;2.67;;;8.20;83.40;;;;;;5032421;28;20069;-71
2022/11/25 01:46:55;;;;;;;10.23;2.30;;;8.20;83.30;;;;;;5032355;28;20257;-71
2022/11/25 01:49:30;;;;;;;10.07;2.45;;;8.20;83.30;;;;;;5015653;28;20396;-71
2022/11/25 01:52:01;;;;;;;13.30;2.75;;;8.30;83.30;;;;;;5032491;28;20053;-71
2022/11/25 01:54:38;;;;;;;7.55;2.00;;;8.30;83.30;;;;;;5014176;28;20050;-71
2022/11/25 01:57:08;;;;;;;13.27;2.87;;;8.20;83.30;;;;;;5049149;28;20089;-71
2022/11/25 01:59:41;;;;;;;8.75;2.28;;;8.30;83.40;;;;;;5030768;28;20627;-71
2022/11/25 02:02:10;;;;;;;9.55;2.38;;;8.30;83.40;;;;;;5048837;28;20049;-71
2022/11/25 02:04:39;;;;;;;13.13;2.53;;;8.30;83.50;;;;;;5050335;28;20132;-72
2022/11/25 02:07:11;;;;;;;13.20;2.85;;;8.30;83.60;;;;;;5048912;28;20514;-72
2022/11/25 02:09:41;;;;;;;9.10;2.53;;;8.30;83.70;;;;;;5032151;28;20132;-72
2022/11/25 02:12:08;;;;;;;9.50;2.40;;;8.30;83.60;;;;;;5014419;28;20276;-72
2022/11/25 02:14:35;;;;;;;9.70;2.50;;;8.30;83.80;;;;;;5050369;28;20080;-71
2022/11/25 02:17:02;;;;;;;10.27;2.30;;;8.30;83.90;;;;;;5031951;28;20137;-71
2022/11/25 02:19:42;;;;;;;9.27;2.75;;;8.30;83.90;;;;;;5048480;28;20045;-71
2022/11/25 02:22:20;;;;;;;12.50;2.67;;;8.30;84.10;;;;;;5032223;28;20404;-72
2022/11/25 02:24:54;;;;;;;10.30;2.35;;;8.30;84.10;;;;;;5032430;28;20261;-71
2022/11/25 02:27:22;;;;;;;9.80;2.65;;;8.30;84.30;;;;;;5047518;28;20053;-71
2022/11/25 02:29:50;;;;;;;14.70;2.58;;;8.30;84.30;;;;;;5031636;28;20701;-71
2022/11/25 02:32:21;;;;;;;11.70;3.10;;;8.30;84.30;;;;;;5028894;28;20116;-72
2022/11/25 02:34:48;;;;;;;12.07;2.73;;;8.30;84.50;;;;;;5051175;28;20055;-72
2022/11/25 02:37:18;;;;;;;14.27;2.75;;;8.30;84.50;;;;;;5031613;28;20369;-71
2022/11/25 02:39:47;;;;;;;12.40;3.25;;;8.30;84.60;;;;;;5047911;28;20118;-71
2022/11/25 02:42:15;;;;;;;12.93;3.20;;;8.30;84.70;;;;;;5047974;28;20079;-71
2022/11/25 02:44:48;;;;;;;11.93;2.95;;;8.30;84.70;;;;;;5030083;28;20146;-71
2022/11/25 02:47:15;;;;;;;11.70;2.50;;;8.40;84.80;;;;;;5030231;28;20139;-71
2022/11/25 02:49:42;;;;;;;11.50;2.88;;;8.40;84.80;;;;;;5029420;28;20307;-71
2022/11/25 02:52:09;;;;;;;12.68;3.03;;;8.40;85.00;;;;;;5013856;28;20049;-71
2022/11/25 02:54:37;;;;;;;10.45;2.85;;;8.40;85.00;;;;;;5046400;28;20057;-71
2022/11/25 02:57:04;;;;;;;11.32;3.50;;;8.40;85.20;;;;;;5029930;28;20510;-72
2022/11/25 02:59:34;;;;;;;11.03;3.57;;;8.40;85.10;;;;;;5029856;28;20539;-71
2022/11/25 03:02:03;;;;;;;14.48;3.10;;;8.40;85.20;;;;;;5046172;28;20372;-71
2022/11/25 03:04:30;;;;;;;13.63;3.50;;;8.40;85.40;;;;;;5031514;28;20051;-71
2022/11/25 03:06:57;;;;;;;12.30;3.30;;;8.40;85.50;;;;;;5031795;28;20077;-71
2022/11/25 03:09:25;;;;;;;10.65;3.22;;;8.40;85.40;;;;;;5014781;28;20145;-71
2022/11/25 03:14:36;;;;;;;12.13;3.17;;;8.50;85.70;;;;;;5034628;28;20248;-71
2022/11/25 03:17:04;;;;;;;12.90;3.17;;;8.40;85.70;;;;;;5035079;28;20495;-71
2022/11/25 03:19:31;;;;;;;13.13;3.33;;;8.40;85.70;;;;;;5016180;28;20049;-72
2022/11/25 03:21:58;;;;;;;13.95;3.50;;;8.40;85.80;;;;;;5052992;28;20057;-72
2022/11/25 03:24:25;;;;;;;12.97;3.47;;;8.50;85.90;;;;;;5034752;28;20050;-71
2022/11/25 03:26:52;;;;;;;12.35;3.58;;;8.50;86.10;;;;;;5018386;28;20241;-71
2022/11/25 03:29:19;;;;;;;14.43;3.63;;;8.50;86.10;;;;;;5017932;28;20609;-71
2022/11/25 03:31:46;;;;;;;15.02;3.60;;;8.50;86.10;;;;;;5034860;28;20132;-71
2022/11/25 03:34:15;;;;;;;15.48;3.95;;;8.50;86.10;;;;;;5017889;28;20056;-71
2022/11/25 03:36:42;;;;;;;12.53;3.33;;;8.50;86.20;;;;;;5033789;28;20082;-71
2022/11/25 03:39:10;;;;;;;14.00;3.33;;;8.50;86.20;;;;;;5034681;28;20277;-71
2022/11/25 03:41:37;;;;;;;9.82;3.20;;;8.50;86.30;;;;;;5034520;28;20103;-71
2022/11/25 03:44:05;;;;;;;13.57;3.33;;;8.50;86.30;;;;;;5017901;28;20073;-72
2022/11/25 03:46:32;;;;;;;12.00;3.70;;;8.50;86.30;;;;;;5034278;28;20061;-71
2022/11/25 03:49:01;;;;;;;12.00;3.20;;;8.50;86.40;;;;;;5034091;28;20092;-71
2022/11/25 03:51:31;;;;;;;11.07;3.90;;;8.50;86.40;;;;;;5051353;28;20313;-72
2022/11/25 03:53:59;;;;;;;14.23;4.28;;;8.50;86.40;;;;;;5032670;28;20073;-72
2022/11/25 03:56:26;;;;;;;11.80;3.30;;;8.60;86.50;;;;;;5051073;28;20046;-71
2022/11/25 03:58:53;;;;;;;12.98;3.60;;;8.60;86.50;;;;;;5034461;28;20046;-71
2022/11/25 04:01:22;;;;;;;11.70;3.80;;;8.60;86.70;;;;;;5034239;28;20052;-71
2022/11/25 04:03:50;;;;;;;12.05;3.60;;;8.60;86.60;;;;;;5017394;28;20332;-71
2022/11/25 04:06:20;;;;;;;12.90;3.58;;;8.60;86.60;;;;;;5050754;28;20054;-71
2022/11/25 04:08:50;;;;;;;11.90;3.38;;;8.60;86.70;;;;;;5033662;28;20053;-71
2022/11/25 04:11:17;;;;;;;12.95;3.92;;;8.60;86.60;;;;;;5016434;28;20073;-71
2022/11/25 04:13:47;;;;;;;11.90;3.73;;;8.60;86.70;;;;;;5050528;28;20579;-72
2022/11/25 04:16:24;;;;;;;14.35;4.72;;;8.60;86.80;;;;;;5017689;28;20256;-71
2022/11/25 04:18:53;;;;;;;10.82;3.60;;;8.60;86.90;;;;;;5017001;28;20037;-71
2022/11/25 04:21:20;;;;;;;12.32;4.03;;;8.60;86.80;;;;;;5017513;28;20143;-71
2022/11/25 04:23:47;;;;;;;15.68;4.00;;;8.60;86.70;;;;;;5033452;28;20061;-72
2022/11/25 04:26:16;;;;;;;13.90;3.10;;;8.60;86.80;;;;;;5034215;28;20055;-71
2022/11/25 04:28:44;;;;;;;13.65;3.63;;;8.60;86.80;;;;;;5015397;28;20249;-71
2022/11/25 04:31:11;;;;;;;12.40;4.00;;;8.60;86.80;;;;;;5050035;28;20546;-71
2022/11/25 04:33:41;;;;;;;13.27;3.83;;;8.60;86.80;;;;;;5033805;28;20153;-71
2022/11/25 04:36:09;;;;;;;13.73;4.07;;;8.60;86.90;;;;;;5033434;28;20045;-71
2022/11/25 04:38:36;;;;;;;12.07;3.73;;;8.60;86.90;;;;;;5049815;28;20045;-72
2022/11/25 04:41:05;;;;;;;10.50;3.90;;;8.60;87.00;;;;;;5033391;28;20300;-72
2022/11/25 04:43:39;;;;;;;15.05;3.92;;;8.60;87.00;;;;;;5033703;28;20140;-71
2022/11/25 04:46:14;;;;;;;12.52;4.47;;;8.60;87.00;;;;;;5048978;28;20045;-71
2022/11/25 04:48:44;;;;;;;12.02;3.83;;;8.60;87.00;;;;;;5016902;28;20674;-71
2022/11/25 04:51:11;;;;;;;10.20;3.70;;;8.60;87.00;;;;;;5016672;28;20049;-71
2022/11/25 04:53:39;;;;;;;12.48;3.85;;;8.60;87.00;;;;;;5016639;28;20259;-71
2022/11/25 04:56:10;;;;;;;13.40;4.68;;;8.70;87.00;;;;;;5016858;28;20050;-71
2022/11/25 05:01:29;;;;;;;12.18;4.28;;;8.70;87.00;;;;;;5049718;28;20049;-71
2022/11/25 05:04:04;;;;;;;12.33;4.17;;;8.70;87.00;;;;;;5015180;28;20045;-71
2022/11/25 05:06:31;;;;;;;12.43;3.92;;;8.70;87.00;;;;;;5033859;28;20261;-71
2022/11/25 05:09:00;;;;;;;11.10;3.90;;;8.70;87.00;;;;;;5029277;28;20049;-71
2022/11/25 05:11:28;;;;;;;12.27;3.70;;;8.70;87.10;;;;;;5033092;28;20081;-71
2022/11/25 05:13:56;;;;;;;17.27;4.43;;;8.70;87.10;;;;;;5029617;28;20108;-72
2022/11/25 05:16:23;;;;;;;14.17;4.57;;;8.70;87.10;;;;;;5013900;28;20050;-71
2022/11/25 05:18:51;;;;;;;13.25;4.32;;;8.70;87.10;;;;;;5029099;28;20277;-71
2022/11/25 05:21:18;;;;;;;14.32;4.15;;;8.70;87.10;;;;;;5027928;28;20053;-71
2022/11/25 05:23:46;;;;;;;12.73;4.22;;;8.70;87.20;;;;;;5046322;28;20046;-71
2022/11/25 05:26:13;;;;;;;13.70;3.92;;;8.70;87.20;;;;;;5029957;28;20554;-72
2022/11/25 05:28:43;;;;;;;11.33;3.80;;;8.70;87.20;;;;;;5048699;28;20586;-72
2022/11/25 05:31:13;;;;;;;15.70;4.63;;;8.80;87.20;;;;;;5032943;28;20261;-71
2022/11/25 05:33:40;;;;;;;15.60;4.72;;;8.70;87.30;;;;;;5032503;28;20056;-71
2022/11/25 05:36:11;;;;;;;16.00;3.78;;;8.80;87.40;;;;;;5016079;28;20049;-71
2022/11/25 05:38:46;;;;;;;12.23;3.95;;;8.80;87.50;;;;;;5041311;28;20554;-72
2022/11/25 05:41:18;;;;;;;13.13;4.37;;;8.80;87.30;;;;;;5029472;28;20204;-71
2022/11/25 05:43:46;;;;;;;11.25;3.90;;;8.80;87.40;;;;;;5032453;28;20332;-71
2022/11/25 05:46:15;;;;;;;11.93;3.45;;;8.80;87.40;;;;;;5050737;28;20139;-72
2022/11/25 05:48:53;;;;;;;13.57;4.60;;;8.80;87.50;;;;;;5032098;28;20467;-71
2022/11/25 05:51:20;;;;;;;16.10;4.53;;;8.80;87.60;;;;;;5033069;28;20076;-71
2022/11/25 05:53:48;;;;;;;11.87;3.60;;;8.80;87.80;;;;;;5032633;28;20069;-72
2022/11/25 05:56:15;;;;;;;13.68;3.88;;;8.80;87.70;;;;;;5031110;28;20343;-71
2022/11/25 05:59:17;;;;;;;11.25;3.88;;;8.80;87.80;;;;;;5032767;28;20045;-71
2022/11/25 06:01:59;;;;;;;13.10;3.38;;;8.80;87.70;;;;;;5015304;28;21104;-71
2022/11/25 06:04:27;;;;;;;10.90;3.55;;;8.90;87.90;;;;;;5016278;28;20569;-71
2022/11/25 06:06:54;;;;;;;15.67;3.47;;;8.90;87.80;;;;;;5016079;28;20127;-71
2022/11/25 06:09:21;;;;;;;9.13;3.00;;;8.90;87.90;;;;;;5032287;28;20332;-71
2022/11/25 06:11:48;;;;;;;9.55;2.75;;;8.90;87.90;;;;;;5031142;28;20053;-71
2022/11/25 06:14:16;;;;;;;8.88;3.13;;;8.90;87.80;;;;;;5032728;28;20050;-71
2022/11/25 06:16:44;;;;;;;15.90;3.80;;;8.90;87.90;;;;;;5048987;28;20422;-71
2022/11/25 06:19:35;;;;;;;12.47;3.23;;;8.90;88.20;;;;;;5032540;28;20141;-71
2022/11/25 06:22:03;;;;;;;11.13;2.70;;;9.00;88.10;;;;;;5032322;28;20374;-71
2022/11/25 06:24:30;;;;;;;8.82;3.10;;;8.90;88.20;;;;;;5015838;28;20045;-71
2022/11/25 06:27:02;;;;;;;8.35;2.20;;;8.90;88.10;;;;;;5015503;28;20148;-71
2022/11/25 06:29:29;;;;;;;11.93;3.20;;;9.00;88.20;;;;;;5046933;28;20543;-71
2022/11/25 06:31:56;;;;;;;11.13;2.77;;;9.00;88.20;;;;;;5048534;28;20053;-71
2022/11/25 06:34:41;;;;;;;10.65;3.03;;;9.00;88.20;;;;;;5032484;28;20826;-71
2022/11/25 06:37:14;;;;;;;10.98;3.10;;;9.00;88.20;;;;;;5015825;28;20045;-71
2022/11/25 06:39:41;;;;;;;8.30;2.15;;;9.00;88.10;;;;;;5030576;28;20046;-71
2022/11/25 06:42:08;;;;;;;10.88;2.88;;;9.00;88.20;;;;;;5049494;28;20499;-71
2022/11/25 06:44:35;;;;;;;10.40;2.90;;;9.00;88.20;;;;;;5048158;28;20045;-71
2022/11/25 06:47:03;;;;;;;10.00;2.38;;;9.00;88.10;;;;;;5029568;28;20352;-71
2022/11/25 06:49:30;;;;;;;7.13;2.97;;;9.00;88.20;;;;;;5049287;28;20598;-71
2022/11/25 06:51:58;;;;;;;10.18;2.40;;;9.00;88.00;;;;;;5039083;28;20041;-71
2022/11/25 06:54:25;;;;;;;9.60;2.53;;;9.00;88.10;;;;;;5056353;28;20131;-71
2022/11/25 06:56:52;;;;;;;11.40;3.20;;;9.00;88.10;;;;;;5047929;28;20057;-71
2022/11/25 06:59:20;;;;;;;8.50;2.40;;;9.00;88.20;;;;;;5039228;28;20341;-71
2022/11/25 07:01:47;;;;;;;8.63;2.80;;;9.00;88.00;;;;;;5040701;28;20511;-71
2022/11/25 07:04:14;;;;;;;10.07;2.83;;;9.00;88.10;;;;;;5040378;28;20495;-71
2022/11/25 07:06:41;;;;;;;10.95;2.60;;;9.00;88.10;;;;;;5063334;28;20045;-71
2022/11/25 07:09:10;;;;;;;7.87;2.50;;;9.00;88.00;;;;;;5057175;28;20097;-72
2022/11/25 07:11:39;;;;;;;8.10;2.13;;;9.00;87.90;;;;;;5046301;28;20284;-71
2022/11/25 07:14:10;;;;;;;9.70;2.40;;;9.00;87.80;;;;;;5047455;28;20132;-71
2022/11/25 07:16:39;;;;;;;9.52;2.00;;;9.00;87.70;;;;;;5046430;28;20049;-71
2022/11/25 07:19:06;;;;;;;10.07;2.25;;;9.00;87.60;;;;;;5033480;28;20050;-71
2022/11/25 07:21:35;;;;;;;6.23;1.83;;;9.00;87.50;;;;;;5044875;28;20526;-71
2022/11/25 07:24:04;;;;;;;8.68;2.10;;;9.00;87.40;;;;;;5051800;28;20358;-71
2022/11/25 07:26:35;;;;;;;9.10;2.28;;;9.00;87.30;;;;;;5047615;28;20653;-71
2022/11/25 07:29:04;;;;;;;9.55;1.95;;;9.00;87.20;;;;;;5030033;28;20048;-71
2022/11/25 07:31:33;;;;;;;8.98;1.95;;;9.00;87.20;;;;;;5048047;28;20057;-71
2022/11/25 07:34:02;;;;;;;8.53;2.00;;;9.00;87.20;;;;;;5033699;28;20053;-71
2022/11/25 07:36:31;;;;;;;5.97;1.85;;;9.00;87.20;;;;;;5048892;28;20293;-70
2022/11/25 07:39:00;;;;;;;9.55;1.98;;;8.90;87.10;;;;;;5047247;28;21046;-70
2022/11/25 07:41:28;;;;;;;8.02;2.00;;;8.90;87.10;;;;;;5029234;28;20739;-70
2022/11/25 07:43:58;;;;;;;7.32;2.03;;;8.90;87.10;;;;;;5046527;28;20096;-70
2022/11/25 07:46:28;;;;;;;9.37;1.87;;;8.90;87.10;;;;;;5029845;28;20056;-70
2022/11/25 07:49:00;;;;;;;11.50;2.20;;;8.90;87.00;;;;;;5029953;28;20289;-70
2022/11/25 07:51:29;;;;;;;7.75;1.98;;;8.90;87.00;;;;;;5038775;28;20057;-70
2022/11/25 07:53:58;;;;;;;8.10;1.90;;;8.90;86.90;;;;;;5048494;28;20136;-71
2022/11/25 07:56:25;;;;;;;9.70;1.98;;;8.80;87.00;;;;;;5030998;28;20049;-71
2022/11/25 07:58:52;;;;;;;8.43;1.90;;;8.80;87.00;;;;;;5031457;28;20041;-71
2022/11/25 08:01:21;;;;;;;5.45;1.73;;;8.80;87.00;;;;;;5050927;28;20278;-71
2022/11/25 08:03:49;;;;;;;6.47;1.73;;;8.80;87.00;;;;;;5032771;28;20052;-71
2022/11/25 08:06:18;;;;;;;7.50;1.73;;;8.80;87.00;;;;;;5033649;28;20128;-71
2022/11/25 08:08:46;;;;;;;7.68;1.85;;;8.80;87.10;;;;;;5034113;28;20092;-71
2022/11/25 08:11:15;;;;;;;8.57;2.10;;;8.70;87.10;;;;;;5050571;28;20681;-71
2022/11/25 08:13:43;;;;;;;9.20;2.22;;;8.70;87.00;;;;;;5050742;28;20276;-70
2022/11/25 08:16:12;;;;;;;10.93;3.10;;;8.70;87.10;;;;;;5031279;28;21011;-70
2022/11/25 08:18:40;;;;;;;9.18;2.55;;;8.70;87.20;;;;;;5032734;28;20108;-70
2022/11/25 08:21:10;;;;;;;8.52;3.50;;;8.70;87.10;;;;;;5032156;28;20107;-70
2022/11/25 08:23:39;;;;;;;10.13;2.50;;;8.70;87.10;;;;;;5033004;28;20053;-70
2022/11/25 08:26:07;;;;;;;9.23;2.40;;;8.60;87.20;;;;;;5032923;28;20264;-70
2022/11/25 08:28:34;;;;;;;8.93;2.25;;;8.70;87.30;;;;;;5056693;28;20041;-70
2022/11/25 08:31:03;;;;;;;7.40;2.60;;;8.70;87.40;;;;;;5054798;28;20085;-71
2022/11/25 08:33:30;;;;;;;10.18;3.20;;;8.70;87.40;;;;;;5054347;28;20057;-71
2022/11/25 08:35:59;;;;;;;13.17;6.03;;;8.70;87.40;;;;;;5054817;28;20111;-71
2022/11/25 08:38:26;;;;;;;11.43;5.13;;;8.70;87.50;;;;;;5051674;28;20730;-70
2022/11/25 08:40:53;;;;;;;8.95;3.78;;;8.80;87.50;;;;;;5064451;28;20045;-71
2022/11/25 08:43:21;;;;;;;11.20;5.40;;;8.80;87.60;;;;;;5033523;28;20052;-71
2022/11/25 08:45:48;;;;;;;9.82;2.80;;;8.80;87.70;;;;;;5033112;28;20128;-71
2022/11/25 08:48:16;;;;;;;9.33;4.73;;;8.80;87.90;;;;;;5032819;28;20056;-71
2022/11/25 08:50:46;;;;;;;10.57;4.82;;;8.80;87.90;;;;;;5031556;28;20364;-71
2022/11/25 08:53:15;;;;;;;13.13;8.35;;;8.90;88.10;;;;;;5049545;28;20064;-71
2022/11/25 08:55:42;;;;;;;12.18;6.28;;;8.90;87.90;;;;;;5051802;28;20053;-71
2022/11/25 08:58:11;;;;;;;15.20;6.53;;;8.90;88.00;;;;;;5032869;28;20049;-71
2022/11/25 09:00:40;;;;;;;9.23;2.60;;;8.90;88.00;;;;;;5047562;28;20057;-71
2022/11/25 09:03:07;;;;;;;11.95;3.90;;;8.90;88.20;;;;;;5031780;28;20264;-71
2022/11/25 09:05:35;;;;;;;8.32;3.00;;;8.90;88.30;;;;;;5032371;28;20144;-71
2022/11/25 09:08:02;;;;;;;11.75;6.50;;;8.90;88.20;;;;;;5048431;28;20985;-71
2022/11/25 09:10:32;;;;;;;9.50;3.35;;;8.90;88.10;;;;;;5043233;28;20136;-71
2022/11/25 09:12:59;;;;;;;9.43;3.53;;;8.90;88.20;;;;;;5030256;28;20576;-71
2022/11/25 09:15:27;;;;;;;9.75;3.50;;;9.00;88.30;;;;;;5033613;28;20253;-71
2022/11/25 09:17:58;;;;;;;11.45;3.53;;;9.00;88.20;;;;;;5033403;28;20049;-71
2022/11/25 09:20:25;;;;;;;10.02;4.28;;;9.00;88.20;;;;;;5046200;28;20042;-71
2022/11/25 09:22:53;;;;;;;8.73;2.95;;;9.00;88.30;;;;;;5030013;28;20050;-71
2022/11/25 09:25:20;;;;;;;7.47;3.10;;;9.00;88.20;;;;;;5013889;28;20050;-71
2022/11/25 09:27:48;;;;;;;8.18;3.40;;;9.00;88.20;;;;;;5045180;28;20265;-71
2022/11/25 09:30:16;;;;;;;9.07;3.67;;;9.10;88.20;;;;;;5031019;28;20079;-71
2022/11/25 09:32:43;;;;;;;8.68;3.05;;;9.10;88.00;;;;;;5048500;28;20046;-71
2022/11/25 09:35:10;;;;;;;11.20;4.43;;;9.20;87.80;;;;;;5051419;28;20136;-71
2022/11/25 09:37:37;;;;;;;8.30;3.43;;;9.20;87.80;;;;;;5033552;28;20041;-71
2022/11/25 09:40:07;;;;;;;12.90;4.57;;;9.20;87.70;;;;;;5033395;28;20277;-71
2022/11/25 09:48:45;;;;;;;10.65;2.72;;;9.20;87.60;;;;;;5012970;28;20045;-71
2022/11/25 09:51:20;;;;;;;9.37;3.10;;;9.20;87.70;;;;;;5033300;28;20060;-71
2022/11/25 09:53:51;;;;;;;8.88;2.70;;;9.30;87.60;;;;;;5050945;28;20347;-71
2022/11/25 09:56:27;;;;;;;8.68;2.80;;;9.40;87.50;;;;;;5050633;28;20057;-71
2022/11/25 09:58:58;;;;;;;7.43;2.42;;;9.40;87.30;;;;;;5050518;28;20056;-71
2022/11/25 10:01:30;;;;;;;7.82;2.53;;;9.40;87.20;;;;;;5049270;28;20136;-71
2022/11/25 10:04:02;;;;;;;8.37;2.83;;;9.40;87.10;;;;;;5032755;28;21030;-71
2022/11/25 10:06:32;;;;;;;10.13;3.00;;;9.40;87.20;;;;;;5032614;28;20304;-71
2022/11/25 10:09:01;;;;;;;8.52;2.85;;;9.50;87.20;;;;;;5032051;28;20853;-71
2022/11/25 10:11:42;;;;;;;8.10;2.53;;;9.50;86.90;;;;;;5050096;28;21029;-71
2022/11/25 10:14:17;;;;;;;7.18;2.75;;;9.60;86.70;;;;;;5050120;28;20049;-71
2022/11/25 10:16:51;;;;;;;8.90;2.23;;;9.60;86.40;;;;;;5050383;28;20111;-71
2022/11/25 10:19:36;;;;;;;9.10;2.10;;;9.70;86.30;;;;;;5048839;28;20336;-71
2022/11/25 10:22:16;;;;;;;8.15;2.20;;;9.70;86.20;;;;;;5049982;28;20057;-71
2022/11/25 10:24:43;;;;;;;6.97;2.40;;;9.80;86.00;;;;;;5032709;28;20042;-71
2022/11/25 10:27:18;;;;;;;9.18;2.10;;;9.80;85.80;;;;;;5048815;28;20523;-71
2022/11/25 10:29:54;;;;;;;9.57;2.10;;;9.80;85.80;;;;;;5032023;28;20049;-71
2022/11/25 10:32:25;;;;;;;10.30;2.22;;;9.90;85.80;;;;;;5050073;28;20276;-71
2022/11/25 10:34:57;;;;;;;8.25;2.65;;;9.90;85.70;;;;;;5049627;28;20061;-71
2022/11/25 10:37:29;;;;;;;9.98;2.20;;;10.00;85.60;;;;;;5049675;28;20084;-71
2022/11/25 10:39:56;;;;;;;9.48;2.00;;;10.00;85.20;;;;;;5049905;28;20052;-71
2022/11/25 10:42:25;;;;;;;7.93;2.40;;;10.00;85.20;;;;;;5015692;28;20132;-71
2022/11/25 10:44:53;;;;;;;7.45;2.05;;;10.10;85.10;;;;;;5050147;28;20272;-71
2022/11/25 10:47:34;;;;;;;7.00;2.03;;;10.10;84.90;;;;;;5050184;28;20057;-71
2022/11/25 10:50:14;;;;;;;7.53;2.10;;;10.10;84.80;;;;;;5049386;28;20053;-71
2022/11/25 10:52:59;;;;;;;8.68;2.00;;;10.20;84.70;;;;;;5048667;28;20111;-71
2022/11/25 10:55:28;;;;;;;12.77;2.63;;;10.20;84.40;;;;;;5049991;28;20073;-71
2022/11/25 10:57:55;;;;;;;9.48;1.88;;;10.30;83.90;;;;;;5032029;28;21321;-71
2022/11/25 11:00:29;;;;;;;8.60;2.03;;;10.30;83.70;;;;;;5049363;28;20045;-72
2022/11/25 11:02:59;;;;;;;7.55;2.05;;;10.30;83.70;;;;;;5049463;28;20057;-71
2022/11/25 11:05:29;;;;;;;8.43;2.28;;;10.40;83.90;;;;;;5050038;28;20547;-71
2022/11/25 11:08:15;;;;;;;8.77;1.90;;;10.40;83.60;;;;;;5031648;28;20085;-71
2022/11/25 11:10:42;;;;;;;8.32;2.00;;;10.50;83.60;;;;;;5030286;28;20287;-71
2022/11/25 11:13:22;;;;;;;7.82;2.00;;;10.50;82.80;;;;;;5048622;28;20050;-71
2022/11/25 11:15:50;;;;;;;9.57;2.08;;;10.60;82.40;;;;;;5048632;28;20054;-72
2022/11/25 11:18:25;;;;;;;9.35;1.90;;;10.60;82.60;;;;;;5031742;28;20053;-72
2022/11/25 11:20:55;;;;;;;8.13;1.87;;;10.60;82.70;;;;;;5031269;28;20045;-71
2022/11/25 11:23:22;;;;;;;6.60;1.65;;;10.60;82.50;;;;;;5031720;28;20279;-71
2022/11/25 11:25:58;;;;;;;9.40;2.03;;;10.60;82.40;;;;;;5031814;28;20053;-71
2022/11/25 11:28:31;;;;;;;7.82;1.88;;;10.60;82.00;;;;;;5048296;28;20057;-72
2022/11/25 11:31:02;;;;;;;8.63;1.83;;;10.60;82.00;;;;;;5047722;28;20050;-72
2022/11/25 11:33:35;;;;;;;11.50;2.03;;;10.60;82.20;;;;;;5049961;28;20054;-71
2022/11/25 11:36:30;;;;;;;7.97;1.65;;;10.60;82.40;;;;;;5035033;28;20751;-71
2022/11/25 11:39:21;;;;;;;9.07;1.75;;;10.70;82.50;;;;;;5048537;28;20049;-72
2022/11/25 11:42:47;;;;;;;9.27;2.50;;;10.70;82.50;;;;;;5035851;28;20049;-71
2022/11/25 11:45:30;;;;;;;6.78;1.65;;;10.80;82.00;;;;;;5051154;28;20128;-71
2022/11/25 11:48:11;;;;;;;7.50;1.70;;;10.80;81.70;;;;;;5051443;28;20141;-71
2022/11/25 11:50:42;;;;;;;8.65;2.00;;;10.80;81.70;;;;;;5051267;28;20811;-71
2022/11/25 11:53:16;;;;;;;7.30;1.90;;;10.90;81.30;;;;;;5052802;28;20141;-72
2022/11/25 11:55:51;;;;;;;6.57;1.65;;;10.90;81.40;;;;;;5051182;28;20081;-71
2022/11/25 11:58:26;;;;;;;8.68;1.70;;;11.00;81.00;;;;;;5034665;28;20056;-71
2022/11/25 12:01:06;;;;;;;8.63;1.70;;;11.00;81.10;;;;;;5050875;28;20045;-72
2022/11/25 12:03:38;;;;;;;10.35;2.08;;;11.00;80.90;;;;;;5033160;28;20742;-71
2022/11/25 12:06:10;;;;;;;8.75;1.83;;;11.10;80.70;;;;;;5052550;28;20049;-71
2022/11/25 12:08:47;;;;;;;8.63;2.03;;;11.10;80.70;;;;;;5034506;28;20151;-71
2022/11/25 12:11:19;;;;;;;7.30;1.83;;;11.10;80.70;;;;;;5052345;28;20557;-71
2022/11/25 12:13:53;;;;;;;8.83;2.00;;;11.10;80.20;;;;;;5034130;28;20140;-71
2022/11/25 12:16:27;;;;;;;7.38;1.60;;;11.20;79.90;;;;;;5052335;28;20385;-72
2022/11/25 12:18:59;;;;;;;7.25;1.30;;;11.10;80.20;;;;;;5032387;28;20439;-71
2022/11/25 12:21:40;;;;;;;8.35;2.10;;;11.10;80.00;;;;;;5052520;28;20061;-71
2022/11/25 12:24:14;;;;;;;9.00;2.10;;;11.10;80.00;;;;;;5047549;28;20586;-71
2022/11/25 12:26:48;;;;;;;10.70;1.77;;;11.10;79.90;;;;;;5047772;28;20053;-72
2022/11/25 12:29:23;;;;;;;7.63;1.48;;;11.10;80.10;;;;;;5051771;28;20315;-72
2022/11/25 12:31:57;;;;;;;9.45;1.40;;;11.10;80.20;;;;;;5034150;28;20542;-71
2022/11/25 12:34:34;;;;;;;7.80;1.80;;;11.10;80.30;;;;;;5033972;28;21043;-72
2022/11/25 12:37:09;;;;;;;10.50;1.80;;;11.10;80.40;;;;;;5034228;28;20132;-72
2022/11/25 12:39:44;;;;;;;7.97;1.70;;;11.10;80.50;;;;;;5050359;28;20515;-71
2022/11/25 12:42:15;;;;;;;8.23;1.50;;;11.10;80.60;;;;;;5046605;28;20285;-71
2022/11/25 12:44:53;;;;;;;10.40;1.60;;;11.10;80.70;;;;;;5016701;28;20053;-71
2022/11/25 12:47:20;;;;;;;11.00;1.95;;;11.10;80.90;;;;;;5034081;28;20469;-71
2022/11/25 12:49:49;;;;;;;10.25;1.90;;;11.10;80.80;;;;;;5050309;28;20597;-72
2022/11/25 12:52:40;;;;;;;9.70;1.90;;;11.10;80.90;;;;;;5033960;28;20056;-71
2022/11/25 12:55:15;;;;;;;10.18;1.40;;;11.10;81.00;;;;;;5040536;28;20245;-72
2022/11/25 12:58:29;;;;;;;8.02;1.63;;;11.10;81.10;;;;;;5040532;28;20052;-73
2022/11/25 13:01:28;;;;;;;9.82;2.00;;;11.10;81.10;;;;;;5048690;28;20144;-73
2022/11/25 13:04:18;;;;;;;10.18;1.95;;;11.10;81.20;;;;;;5021069;28;20108;-71
2022/11/25 13:07:20;;;;;;;12.60;2.10;;;11.20;80.90;;;;;;5007981;28;20054;-72
2022/11/25 13:10:16;;;;;;;13.18;1.88;;;11.30;80.90;;;;;;5031043;28;20744;-72
2022/11/25 13:12:53;;;;;;;11.25;2.13;;;11.30;80.70;;;;;;5046220;28;20060;-72
2022/11/25 13:15:27;;;;;;;9.07;1.88;;;11.30;80.60;;;;;;5049269;28;20053;-72
2022/11/25 13:17:58;;;;;;;10.77;1.90;;;11.40;80.60;;;;;;5047217;28;20073;-73
2022/11/25 13:20:50;;;;;;;7.47;1.60;;;11.30;80.70;;;;;;5087237;22;20204;-71
2022/11/25 13:23:32;;;;;;;9.70;1.83;;;11.40;80.60;;;;;;5053121;28;20902;-69
2022/11/25 13:26:37;;;;;;;13.88;1.92;;;11.40;80.70;;;;;;5053350;28;20080;-70